Time;durP1;ratioP1;P1;durP2;ratioP2;P2;SDS_P1;SDS_P2;PMS_P1;PMS_P2;Temp;Humidity;BMP_temperature;BMP_pressure;BME280_temperature;BME280_humidity;BME280_pressure;Samples;Min_cycle;Max_cycle;Signal;HPM_P1;HPM_P2
2021/12/16 00:09:00;;;;;;;0.00;0.00;;;3.70;95.50;;;;;;4158623;28;20133;-62
2021/12/16 00:19:28;;;;;;;0.00;0.00;;;3.70;95.30;;;;;;4161266;28;20080;-61
2021/12/16 00:30:08;;;;;;;0.00;0.00;;;3.70;95.40;;;;;;4161262;28;20045;-62
2021/12/16 00:34:57;;;;;;;0.00;0.00;;;3.90;95.50;;;;;;4175116;28;20139;-61
2021/12/16 00:37:19;;;;;;;0.00;0.00;;;4.00;95.20;;;;;;4175007;28;20145;-61
2021/12/16 00:39:47;;;;;;;0.00;0.00;;;4.10;95.00;;;;;;4147562;28;20071;-61
2021/12/16 00:42:19;;;;;;;0.00;0.00;;;4.10;94.80;;;;;;4146733;28;20070;-61
2021/12/16 00:54:36;;;;;;;0.00;0.00;;;3.60;95.50;;;;;;4161210;28;20505;-61
2021/12/16 00:57:05;;;;;;;0.00;0.00;;;3.60;95.50;;;;;;4160995;28;20049;-61
2021/12/16 00:59:34;;;;;;;0.00;0.00;;;3.60;95.50;;;;;;4161081;28;20522;-61
2021/12/16 01:02:15;;;;;;;0.00;0.00;;;3.70;95.50;;;;;;4171849;28;20091;-62
2021/12/16 01:34:43;;;;;;;0.00;0.00;;;3.70;95.10;;;;;;4130896;28;20061;-63
2021/12/16 01:42:30;;;;;;;0.00;0.00;;;3.70;94.90;;;;;;4146579;28;20109;-61
2021/12/16 01:50:07;;;;;;;0.00;0.00;;;3.70;94.40;;;;;;4177116;28;20077;-61
2021/12/16 01:57:33;;;;;;;;;;;3.70;94.30;;;;;;4177673;28;20045;-61
2021/12/16 02:00:03;;;;;;;0.00;0.00;;;3.70;94.40;;;;;;4163141;28;20008;-61
2021/12/16 02:02:45;;;;;;;0.00;0.00;;;3.60;94.70;;;;;;4163252;28;20049;-62
2021/12/16 02:10:34;;;;;;;;;;;3.80;94.40;;;;;;4163756;28;20096;-61
2021/12/16 02:29:10;;;;;;;0.00;0.00;;;3.80;93.90;;;;;;4132892;28;20057;-61
2021/12/16 02:31:57;;;;;;;0.00;0.00;;;3.70;93.80;;;;;;4132768;28;20058;-61
2021/12/16 02:36:47;;;;;;;0.00;0.00;;;3.90;93.70;;;;;;4160156;28;20438;-61
2021/12/16 02:39:13;;;;;;;0.00;0.00;;;4.00;93.60;;;;;;4146523;28;20046;-61
2021/12/16 02:41:39;;;;;;;0.00;0.00;;;4.10;93.40;;;;;;4146112;28;20041;-62
2021/12/16 02:44:23;;;;;;;0.00;0.00;;;3.90;93.30;;;;;;4135003;28;20054;-61
2021/12/16 02:49:33;;;;;;;0.00;0.00;;;3.70;93.70;;;;;;4162764;28;20072;-62
2021/12/16 02:51:57;;;;;;;0.00;0.00;;;3.80;93.60;;;;;;4132067;28;20067;-62
2021/12/16 02:54:21;;;;;;;0.00;0.00;;;3.80;93.70;;;;;;4146343;28;20050;-61
2021/12/16 02:56:43;;;;;;;0.00;0.00;;;3.80;93.40;;;;;;4160065;28;20522;-61
2021/12/16 02:59:06;;;;;;;0.00;0.00;;;3.70;92.90;;;;;;4146179;28;20046;-61
2021/12/16 03:01:45;;;;;;;0.00;0.00;;;3.60;92.90;;;;;;4132386;28;20050;-62
2021/12/16 03:04:12;;;;;;;0.00;0.00;;;3.50;92.90;;;;;;4132168;28;20046;-61
2021/12/16 03:06:36;;;;;;;0.00;0.00;;;3.50;93.10;;;;;;4159690;28;20058;-61
2021/12/16 03:09:03;;;;;;;0.00;0.00;;;3.50;92.90;;;;;;4146153;28;20129;-61
2021/12/16 03:12:31;;;;;;;0.00;0.00;;;3.50;93.00;;;;;;4145752;28;20121;-61
2021/12/16 03:16:48;;;;;;;0.00;0.00;;;3.60;93.00;;;;;;4162378;28;20037;-61
2021/12/16 03:19:21;;;;;;;0.00;0.00;;;3.60;93.10;;;;;;4162147;28;20848;-61
2021/12/16 03:21:52;;;;;;;0.00;0.00;;;3.70;92.90;;;;;;4161894;28;20060;-61
2021/12/16 03:35:14;;;;;;;0.00;0.00;;;3.70;93.00;;;;;;4132069;28;20042;-61
2021/12/16 03:37:36;;;;;;;0.00;0.00;;;3.70;93.10;;;;;;4159238;28;20616;-61
2021/12/16 03:40:19;;;;;;;0.00;0.00;;;3.70;93.20;;;;;;4145033;28;20046;-62
2021/12/16 03:42:47;;;;;;;0.00;0.00;;;3.70;93.30;;;;;;4156153;28;20502;-61
2021/12/16 03:48:14;;;;;;;0.00;0.00;;;3.90;93.10;;;;;;4161400;28;20113;-61
2021/12/16 03:50:37;;;;;;;0.00;0.00;;;3.90;93.10;;;;;;4140882;28;20046;-62
2021/12/16 03:53:03;;;;;;;0.00;0.00;;;3.70;93.40;;;;;;4145454;28;20084;-61
2021/12/16 03:55:26;;;;;;;0.00;0.00;;;3.60;93.60;;;;;;4145279;28;20058;-62
2021/12/16 03:57:49;;;;;;;0.00;0.00;;;3.40;93.90;;;;;;4161034;28;20457;-62
2021/12/16 04:00:25;;;;;;;0.00;0.00;;;3.40;94.10;;;;;;4151197;28;20111;-61
2021/12/16 04:02:53;;;;;;;0.00;0.00;;;3.50;94.10;;;;;;4138031;28;20057;-61
2021/12/16 04:05:23;;;;;;;0.00;0.00;;;3.50;94.00;;;;;;4168633;28;20513;-61
2021/12/16 04:07:48;;;;;;;0.00;0.00;;;3.50;94.10;;;;;;4158566;28;20597;-63
2021/12/16 04:10:33;;;;;;;0.00;0.00;;;3.50;93.80;;;;;;4144959;28;20038;-62
2021/12/16 04:13:02;;;;;;;0.00;0.00;;;3.40;94.00;;;;;;4145128;28;20050;-61
2021/12/16 04:15:27;;;;;;;0.00;0.00;;;3.40;94.00;;;;;;4145146;28;20535;-61
2021/12/16 04:17:49;;;;;;;0.00;0.00;;;3.50;94.00;;;;;;4161019;28;20042;-62
2021/12/16 04:20:13;;;;;;;0.00;0.00;;;3.60;93.90;;;;;;4161550;28;20041;-61
2021/12/16 04:22:42;;;;;;;0.00;0.00;;;3.80;93.70;;;;;;4133806;28;20057;-61
2021/12/16 04:25:11;;;;;;;0.00;0.00;;;3.80;93.40;;;;;;4175197;28;20516;-62
2021/12/16 04:27:35;;;;;;;0.00;0.00;;;3.90;93.30;;;;;;4161411;28;20084;-61
2021/12/16 04:29:58;;;;;;;0.00;0.00;;;3.90;93.20;;;;;;4146531;28;20064;-61
2021/12/16 04:32:22;;;;;;;0.00;0.00;;;3.90;93.20;;;;;;4175094;28;20607;-61
2021/12/16 04:34:46;;;;;;;0.00;0.00;;;3.90;93.00;;;;;;4161179;28;20045;-61
2021/12/16 04:37:08;;;;;;;0.00;0.00;;;3.90;93.10;;;;;;4174925;28;20068;-61
2021/12/16 04:39:33;;;;;;;0.00;0.00;;;3.90;93.10;;;;;;4146972;28;20053;-61
2021/12/16 04:41:57;;;;;;;0.00;0.00;;;3.90;93.10;;;;;;4144297;28;20109;-62
2021/12/16 04:44:20;;;;;;;0.00;0.00;;;4.00;93.00;;;;;;4144692;28;20515;-61
2021/12/16 04:46:43;;;;;;;0.00;0.00;;;3.90;92.90;;;;;;4150235;28;20455;-61
2021/12/16 04:49:08;;;;;;;0.00;0.00;;;3.70;93.20;;;;;;4150359;28;20049;-61
2021/12/16 04:51:38;;;;;;;0.00;0.00;;;3.80;93.40;;;;;;4171456;28;20132;-62
2021/12/16 04:54:01;;;;;;;0.00;0.00;;;3.80;93.40;;;;;;4146470;28;20081;-61
2021/12/16 04:56:28;;;;;;;0.00;0.00;;;3.90;93.30;;;;;;4161274;28;20580;-61
2021/12/16 04:58:57;;;;;;;0.00;0.00;;;3.70;93.30;;;;;;4147269;28;20052;-62
2021/12/16 05:01:21;;;;;;;0.00;0.00;;;3.70;93.30;;;;;;4160847;28;20443;-61
2021/12/16 05:03:44;;;;;;;0.00;0.00;;;3.80;93.30;;;;;;4144902;28;20081;-61
2021/12/16 05:06:08;;;;;;;0.00;0.00;;;3.70;93.30;;;;;;4130752;28;20057;-61
2021/12/16 05:08:33;;;;;;;0.00;0.00;;;3.70;93.50;;;;;;4144526;28;20100;-61
2021/12/16 05:11:04;;;;;;;0.00;0.00;;;3.70;93.50;;;;;;4144281;28;20743;-61
2021/12/16 05:13:33;;;;;;;0.00;0.00;;;3.80;93.40;;;;;;4159157;28;20384;-62
2021/12/16 05:16:03;;;;;;;0.00;0.00;;;3.70;93.50;;;;;;4162319;28;20419;-62
2021/12/16 05:18:34;;;;;;;0.00;0.00;;;3.70;93.50;;;;;;4147724;28;20046;-61
2021/12/16 05:20:58;;;;;;;0.00;0.00;;;3.80;93.40;;;;;;4147827;28;20085;-62
2021/12/16 05:28:27;;;;;;;0.00;0.00;;;3.90;93.30;;;;;;4149805;28;20148;-60
2021/12/16 05:30:52;;;;;;;0.00;0.00;;;4.00;93.20;;;;;;4163890;28;20054;-61
2021/12/16 05:33:16;;;;;;;0.00;0.00;;;3.90;93.00;;;;;;4177674;28;20048;-61
2021/12/16 05:35:40;;;;;;;0.00;0.00;;;3.80;93.20;;;;;;4163594;28;20049;-60
2021/12/16 05:38:03;;;;;;;0.00;0.00;;;3.70;93.10;;;;;;4177402;28;20049;-60
2021/12/16 05:40:28;;;;;;;0.00;0.00;;;3.60;93.20;;;;;;4166856;28;20041;-63
2021/12/16 05:43:13;;;;;;;0.00;0.00;;;3.50;93.30;;;;;;4152409;28;20077;-63
2021/12/16 05:45:36;;;;;;;0.00;0.00;;;3.40;93.20;;;;;;4161133;28;20064;-60
2021/12/16 05:48:00;;;;;;;0.00;0.00;;;3.30;93.20;;;;;;4146989;28;20417;-60
2021/12/16 05:50:25;;;;;;;0.00;0.00;;;3.40;93.20;;;;;;4147502;28;20112;-60
2021/12/16 05:52:47;;;;;;;0.00;0.00;;;3.40;93.20;;;;;;4147341;28;20056;-60
2021/12/16 05:55:12;;;;;;;0.00;0.00;;;3.40;93.30;;;;;;4147108;28;20046;-60
2021/12/16 05:57:51;;;;;;;0.00;0.00;;;3.40;93.50;;;;;;4176980;28;20056;-60
2021/12/16 06:00:24;;;;;;;0.00;0.00;;;3.30;93.70;;;;;;4149667;28;20050;-60
2021/12/16 06:02:48;;;;;;;0.00;0.00;;;3.30;94.00;;;;;;4150773;28;20049;-61
2021/12/16 06:05:12;;;;;;;0.00;0.00;;;3.40;93.90;;;;;;4177239;28;20107;-61
2021/12/16 06:07:35;;;;;;;0.00;0.00;;;3.40;93.90;;;;;;4135019;28;20066;-61
2021/12/16 06:09:57;;;;;;;0.00;0.00;;;3.30;93.80;;;;;;4147558;28;20531;-61
2021/12/16 06:12:21;;;;;;;0.00;0.00;;;3.40;93.90;;;;;;4158368;28;20050;-60
2021/12/16 06:27:57;;;;;;;0.00;0.00;;;3.40;93.90;;;;;;4175162;28;20052;-61
2021/12/16 06:30:28;;;;;;;0.00;0.00;;;3.50;93.70;;;;;;4160498;28;20494;-60
2021/12/16 06:32:51;;;;;;;0.00;0.00;;;3.60;93.60;;;;;;4146767;28;20818;-61
2021/12/16 06:35:14;;;;;;;0.00;0.00;;;3.60;93.40;;;;;;4146202;28;20084;-64
2021/12/16 06:37:37;;;;;;;0.00;0.00;;;3.60;93.40;;;;;;4146427;28;20104;-61
2021/12/16 06:40:10;;;;;;;0.00;0.00;;;3.50;93.40;;;;;;4146262;28;20073;-61
2021/12/16 06:42:55;;;;;;;0.00;0.00;;;3.60;93.50;;;;;;4146487;28;20101;-61
2021/12/16 06:45:28;;;;;;;0.00;0.00;;;3.70;93.40;;;;;;4146417;28;20506;-61
2021/12/16 06:47:57;;;;;;;0.00;0.00;;;3.70;93.20;;;;;;4162278;28;20056;-61
2021/12/16 06:50:43;;;;;;;0.00;0.00;;;3.50;93.20;;;;;;4162873;28;20120;-60
2021/12/16 06:53:10;;;;;;;0.00;0.00;;;3.40;93.40;;;;;;4176442;28;20153;-61
2021/12/16 06:55:44;;;;;;;0.00;0.00;;;3.40;93.50;;;;;;4176436;28;20045;-61
2021/12/16 06:58:19;;;;;;;0.00;0.00;;;3.30;93.60;;;;;;4162041;28;20033;-61
2021/12/16 07:00:46;;;;;;;0.00;0.00;;;3.50;93.60;;;;;;4176159;28;20049;-61
2021/12/16 07:03:17;;;;;;;0.00;0.00;;;3.60;93.50;;;;;;4162494;28;20099;-61
2021/12/16 07:05:41;;;;;;;0.00;0.00;;;3.70;93.30;;;;;;4176225;28;20618;-61
2021/12/16 07:08:08;;;;;;;0.00;0.00;;;3.80;93.10;;;;;;4175938;28;20049;-61
2021/12/16 07:10:31;;;;;;;0.00;0.00;;;3.80;93.10;;;;;;4162387;28;20084;-61
2021/12/16 07:12:57;;;;;;;0.00;0.00;;;3.90;93.10;;;;;;4162357;28;20148;-61
2021/12/16 07:15:23;;;;;;;0.00;0.00;;;3.90;93.00;;;;;;4162333;28;20081;-60
2021/12/16 07:17:46;;;;;;;0.00;0.00;;;3.90;92.80;;;;;;4161876;28;20136;-63
2021/12/16 07:20:13;;;;;;;0.00;0.00;;;3.80;92.90;;;;;;4176269;28;20102;-60
2021/12/16 07:22:35;;;;;;;0.00;0.00;;;3.80;93.00;;;;;;4162175;28;20136;-61
2021/12/16 07:24:58;;;;;;;0.00;0.00;;;3.80;92.90;;;;;;4161938;28;20076;-61
2021/12/16 07:27:20;;;;;;;0.00;0.00;;;3.80;92.90;;;;;;4175914;28;20072;-61
2021/12/16 07:29:43;;;;;;;0.00;0.00;;;3.80;92.90;;;;;;4175877;28;20057;-61
2021/12/16 07:32:06;;;;;;;0.00;0.00;;;3.90;92.90;;;;;;4144968;28;20546;-61
2021/12/16 07:34:29;;;;;;;0.00;0.00;;;3.90;92.80;;;;;;4145724;28;20132;-61
2021/12/16 07:36:52;;;;;;;0.00;0.00;;;3.90;92.60;;;;;;4158380;28;20045;-61
2021/12/16 07:39:18;;;;;;;0.00;0.00;;;3.90;92.70;;;;;;4131541;28;20096;-60
2021/12/16 07:41:46;;;;;;;0.00;0.00;;;4.00;92.60;;;;;;4173890;28;20037;-60
2021/12/16 07:44:09;;;;;;;0.00;0.00;;;4.00;92.50;;;;;;4161197;28;20052;-61
2021/12/16 07:46:32;;;;;;;0.00;0.00;;;3.90;92.50;;;;;;4175709;28;20056;-60
2021/12/16 07:48:54;;;;;;;0.00;0.00;;;3.80;92.50;;;;;;4175483;28;20056;-60
2021/12/16 07:51:17;;;;;;;0.00;0.00;;;3.80;92.60;;;;;;4161356;28;20100;-60
2021/12/16 07:53:40;;;;;;;0.00;0.00;;;3.70;92.70;;;;;;4161364;28;20140;-60
2021/12/16 07:56:04;;;;;;;0.00;0.00;;;3.60;92.60;;;;;;4175000;28;20056;-60
2021/12/16 07:58:26;;;;;;;0.00;0.00;;;3.50;92.70;;;;;;4175174;28;20052;-61
2021/12/16 08:00:54;;;;;;;0.00;0.00;;;3.50;92.70;;;;;;4175352;28;20494;-60
2021/12/16 08:03:17;;;;;;;0.00;0.00;;;3.60;92.60;;;;;;4175169;28;20126;-60
2021/12/16 08:05:47;;;;;;;0.00;0.00;;;3.50;92.60;;;;;;4175135;28;20079;-60
2021/12/16 08:08:09;;;;;;;0.00;0.00;;;3.50;92.70;;;;;;4144558;28;20065;-60
2021/12/16 08:10:33;;;;;;;0.00;0.00;;;3.50;92.70;;;;;;4158659;28;20045;-61
2021/12/16 08:12:57;;;;;;;0.00;0.00;;;3.50;92.80;;;;;;4158603;28;20076;-60
2021/12/16 08:15:21;;;;;;;0.00;0.00;;;3.50;92.80;;;;;;4144939;28;20475;-60
2021/12/16 08:17:44;;;;;;;0.00;0.00;;;3.40;92.80;;;;;;4158651;28;20128;-60
2021/12/16 08:20:10;;;;;;;0.00;0.00;;;3.40;92.90;;;;;;4158237;28;20041;-60
2021/12/16 08:22:33;;;;;;;0.00;0.00;;;3.40;93.00;;;;;;4144999;28;20116;-61
2021/12/16 08:24:55;;;;;;;0.00;0.00;;;3.40;93.10;;;;;;4144793;28;20054;-60
2021/12/16 08:27:18;;;;;;;0.00;0.00;;;3.40;93.00;;;;;;4144766;28;20120;-60
2021/12/16 08:29:42;;;;;;;0.00;0.00;;;3.40;92.90;;;;;;4173494;28;20051;-60
2021/12/16 08:32:05;;;;;;;0.00;0.00;;;3.50;92.90;;;;;;4171865;28;20153;-60
2021/12/16 08:34:30;;;;;;;0.00;0.00;;;3.40;92.80;;;;;;4144879;28;20543;-60
2021/12/16 08:36:53;;;;;;;0.00;0.00;;;3.30;92.90;;;;;;4144537;28;20042;-60
2021/12/16 08:39:16;;;;;;;0.00;0.00;;;3.40;93.20;;;;;;4144634;28;20069;-60
2021/12/16 08:41:49;;;;;;;0.00;0.00;;;3.50;93.10;;;;;;4160599;28;20076;-62
2021/12/16 08:44:12;;;;;;;0.00;0.00;;;3.70;92.90;;;;;;4144724;28;20372;-60
2021/12/16 08:46:38;;;;;;;0.00;0.00;;;3.70;92.50;;;;;;4144813;28;20049;-61
2021/12/16 08:49:01;;;;;;;0.00;0.00;;;3.70;92.40;;;;;;4144594;28;20096;-60
2021/12/16 08:51:30;;;;;;;0.00;0.00;;;3.80;92.40;;;;;;4158104;28;20049;-60
2021/12/16 08:53:53;;;;;;;0.00;0.00;;;3.90;92.40;;;;;;4174302;28;20049;-61
2021/12/16 08:56:17;;;;;;;0.00;0.00;;;4.00;92.20;;;;;;4174644;28;20135;-60
2021/12/16 08:58:40;;;;;;;0.00;0.00;;;3.90;92.10;;;;;;4174686;28;20078;-60
2021/12/16 09:01:08;;;;;;;0.00;0.00;;;4.00;92.00;;;;;;4174760;28;20586;-60
2021/12/16 09:03:31;;;;;;;0.00;0.00;;;3.90;92.10;;;;;;4174775;28;20120;-61
2021/12/16 09:05:54;;;;;;;0.00;0.00;;;4.00;92.10;;;;;;4144098;28;20057;-61
2021/12/16 09:08:17;;;;;;;0.00;0.00;;;4.00;92.00;;;;;;4145028;28;20577;-63
2021/12/16 09:10:40;;;;;;;0.00;0.00;;;4.00;91.90;;;;;;4158004;28;20072;-61
2021/12/16 09:13:09;;;;;;;0.00;0.00;;;4.00;91.80;;;;;;4158337;28;20042;-60
2021/12/16 09:15:36;;;;;;;0.00;0.00;;;4.00;91.80;;;;;;4144507;28;20050;-61
2021/12/16 09:17:59;;;;;;;0.00;0.00;;;4.00;91.80;;;;;;4144275;28;20104;-61
2021/12/16 09:20:22;;;;;;;0.00;0.00;;;4.10;91.70;;;;;;4144641;28;20149;-61
2021/12/16 09:22:44;;;;;;;0.00;0.00;;;4.10;91.70;;;;;;4157846;28;20052;-61
2021/12/16 09:25:09;;;;;;;0.00;0.00;;;4.10;91.60;;;;;;4163322;28;20088;-61
2021/12/16 09:27:33;;;;;;;0.00;0.00;;;4.10;91.50;;;;;;4170735;28;20079;-61
2021/12/16 09:29:57;;;;;;;0.00;0.00;;;4.00;91.60;;;;;;4173913;28;20088;-62
2021/12/16 09:32:22;;;;;;;0.00;0.00;;;3.90;91.60;;;;;;4174434;28;20045;-60
2021/12/16 09:34:45;;;;;;;0.00;0.00;;;3.90;91.80;;;;;;4157571;28;20049;-61
2021/12/16 09:37:08;;;;;;;0.00;0.00;;;4.00;91.80;;;;;;4160429;28;20053;-60
2021/12/16 09:39:31;;;;;;;0.00;0.00;;;4.00;91.70;;;;;;4159619;28;20045;-61
2021/12/16 09:41:57;;;;;;;0.00;0.00;;;4.00;91.70;;;;;;4173319;28;20139;-62
2021/12/16 09:44:20;;;;;;;0.00;0.00;;;4.10;91.60;;;;;;4160385;28;20037;-62
2021/12/16 09:46:44;;;;;;;0.00;0.00;;;4.00;91.60;;;;;;4159896;28;20142;-61
2021/12/16 09:49:07;;;;;;;0.00;0.00;;;4.00;91.60;;;;;;4174422;28;20056;-62
2021/12/16 09:51:34;;;;;;;0.00;0.00;;;4.10;91.60;;;;;;4160079;28;20089;-61
2021/12/16 09:54:05;;;;;;;0.00;0.00;;;4.10;91.40;;;;;;4160331;28;20057;-61
2021/12/16 09:56:29;;;;;;;0.00;0.00;;;4.10;91.30;;;;;;4160326;28;20053;-61
2021/12/16 09:58:52;;;;;;;0.00;0.00;;;4.20;91.20;;;;;;4174411;28;20148;-61
2021/12/16 10:01:16;;;;;;;0.00;0.00;;;4.30;91.10;;;;;;4161964;28;20511;-61
2021/12/16 10:03:42;;;;;;;0.00;0.00;;;4.40;91.10;;;;;;4177235;28;20049;-61
2021/12/16 10:06:05;;;;;;;0.00;0.00;;;4.40;90.80;;;;;;4146763;28;20046;-61
2021/12/16 10:08:28;;;;;;;0.00;0.00;;;4.30;90.90;;;;;;4146962;28;20045;-61
2021/12/16 10:10:51;;;;;;;0.00;0.00;;;4.20;91.00;;;;;;4146630;28;20491;-60
2021/12/16 10:13:21;;;;;;;0.00;0.00;;;4.10;91.10;;;;;;4133248;28;20053;-61
2021/12/16 10:18:26;;;;;;;0.00;0.00;;;4.10;91.20;;;;;;4176948;28;20414;-61
2021/12/16 10:20:55;;;;;;;0.00;0.00;;;4.00;91.20;;;;;;4162901;28;20457;-61
2021/12/16 10:23:38;;;;;;;0.00;0.00;;;4.00;91.30;;;;;;4163099;28;20483;-61
2021/12/16 10:26:15;;;;;;;0.00;0.00;;;4.00;91.30;;;;;;4162541;28;20076;-61
2021/12/16 10:28:43;;;;;;;0.00;0.00;;;4.00;91.30;;;;;;4176679;28;20063;-61
2021/12/16 10:31:18;;;;;;;0.00;0.00;;;4.10;91.20;;;;;;4176518;28;20049;-61
2021/12/16 10:34:08;;;;;;;0.00;0.00;;;4.00;91.30;;;;;;4163007;28;20052;-61
2021/12/16 10:36:32;;;;;;;0.00;0.00;;;4.10;91.30;;;;;;4161970;28;20038;-61
2021/12/16 10:39:08;;;;;;;0.00;0.00;;;4.10;91.20;;;;;;4176410;28;20049;-61
2021/12/16 10:41:40;;;;;;;0.00;0.00;;;4.10;91.30;;;;;;4162239;28;20054;-61
2021/12/16 10:44:08;;;;;;;0.00;0.00;;;4.10;91.20;;;;;;4175545;28;20466;-61
2021/12/16 10:46:35;;;;;;;0.00;0.00;;;4.10;91.30;;;;;;4176506;28;20057;-61
2021/12/16 10:49:13;;;;;;;0.00;0.00;;;4.00;91.30;;;;;;4162365;28;20056;-61
2021/12/16 10:51:42;;;;;;;0.00;0.00;;;4.00;91.50;;;;;;4175915;28;20091;-61
2021/12/16 10:54:21;;;;;;;0.00;0.00;;;4.10;91.40;;;;;;4176024;28;20107;-63
2021/12/16 10:56:54;;;;;;;0.00;0.00;;;4.10;91.60;;;;;;4176186;28;20052;-61
2021/12/16 10:59:43;;;;;;;0.00;0.00;;;4.10;91.30;;;;;;4176209;28;20079;-62
2021/12/16 11:02:14;;;;;;;0.00;0.00;;;4.10;91.30;;;;;;4139469;28;20145;-61
2021/12/16 11:04:45;;;;;;;0.00;0.00;;;4.00;91.50;;;;;;4146403;28;20080;-61
2021/12/16 11:07:27;;;;;;;0.00;0.00;;;4.00;91.60;;;;;;4145818;28;20050;-61
2021/12/16 11:09:59;;;;;;;0.00;0.00;;;4.00;91.70;;;;;;4159260;28;20495;-61
2021/12/16 11:12:24;;;;;;;0.00;0.00;;;4.00;91.50;;;;;;4159286;28;20664;-62
2021/12/16 11:15:22;;;;;;;0.00;0.00;;;4.10;91.30;;;;;;4159633;28;20050;-61
2021/12/16 11:17:44;;;;;;;0.00;0.00;;;4.20;91.30;;;;;;4159572;28;20133;-61
2021/12/16 11:20:09;;;;;;;0.00;0.00;;;4.30;91.20;;;;;;4161723;28;20115;-61
2021/12/16 11:22:35;;;;;;;0.00;0.00;;;4.40;91.20;;;;;;4155796;28;20046;-61
2021/12/16 11:25:11;;;;;;;0.00;0.00;;;4.40;91.10;;;;;;4145301;28;20073;-61
2021/12/16 11:27:35;;;;;;;0.00;0.00;;;4.20;91.10;;;;;;4145675;28;20140;-61
2021/12/16 11:30:18;;;;;;;0.00;0.00;;;4.00;91.40;;;;;;4173731;28;20057;-61
2021/12/16 11:32:44;;;;;;;0.00;0.00;;;4.10;91.50;;;;;;4145616;28;20511;-61
2021/12/16 11:35:43;;;;;;;0.00;0.00;;;4.20;91.50;;;;;;4159090;28;20053;-61
2021/12/16 11:38:14;;;;;;;0.00;0.00;;;4.20;91.20;;;;;;4099533;28;20055;-61
2021/12/16 11:41:18;;;;;;;0.00;0.00;;;4.10;91.30;;;;;;4120261;28;20050;-62
2021/12/16 11:43:46;;;;;;;0.00;0.00;;;4.00;91.50;;;;;;4129287;28;20076;-61
2021/12/16 11:46:22;;;;;;;0.00;0.00;;;4.00;91.60;;;;;;4125676;28;20058;-61
2021/12/16 11:49:31;;;;;;;0.00;0.00;;;4.00;91.70;;;;;;4126451;28;20073;-61
2021/12/16 11:52:07;;;;;;;0.00;0.00;;;4.00;91.70;;;;;;4112066;28;20046;-62
2021/12/16 11:54:37;;;;;;;0.00;0.00;;;4.00;91.60;;;;;;4099649;28;20699;-61
2021/12/16 11:57:07;;;;;;;0.00;0.00;;;4.10;91.70;;;;;;4113113;28;20105;-61
2021/12/16 11:59:35;;;;;;;0.00;0.00;;;4.30;91.50;;;;;;4138425;28;20142;-61
2021/12/16 12:01:59;;;;;;;0.00;0.00;;;4.30;91.20;;;;;;4142174;28;20503;-62
2021/12/16 12:04:35;;;;;;;0.00;0.00;;;4.30;91.10;;;;;;4129076;28;20054;-61
2021/12/16 12:06:57;;;;;;;0.00;0.00;;;4.30;91.10;;;;;;4128855;28;20042;-61
2021/12/16 12:09:31;;;;;;;0.00;0.00;;;4.40;91.20;;;;;;4142423;28;20099;-62
2021/12/16 12:11:54;;;;;;;0.00;0.00;;;4.40;90.90;;;;;;4141959;28;20054;-61
2021/12/16 12:14:17;;;;;;;0.00;0.00;;;4.40;90.80;;;;;;4128838;28;20604;-61
2021/12/16 12:16:43;;;;;;;0.00;0.00;;;4.40;90.80;;;;;;4142447;28;20440;-61
2021/12/16 12:19:14;;;;;;;0.00;0.00;;;4.40;90.80;;;;;;4129036;28;20056;-61
2021/12/16 12:21:55;;;;;;;0.00;0.00;;;4.40;90.70;;;;;;4128377;28;20046;-61
2021/12/16 12:24:25;;;;;;;0.00;0.00;;;4.50;90.70;;;;;;4116732;28;20127;-62
2021/12/16 12:26:57;;;;;;;0.00;0.00;;;4.50;90.40;;;;;;4112465;28;20050;-62
2021/12/16 12:29:33;;;;;;;0.00;0.00;;;4.50;90.50;;;;;;4125109;28;20752;-62
2021/12/16 12:32:16;;;;;;;0.00;0.00;;;4.50;90.40;;;;;;4141717;28;20412;-61
2021/12/16 12:34:43;;;;;;;0.00;0.00;;;4.50;90.50;;;;;;4142352;28;20553;-62
2021/12/16 12:37:10;;;;;;;0.00;0.00;;;4.40;90.40;;;;;;4159381;28;20140;-61
2021/12/16 12:39:38;;;;;;;0.00;0.00;;;4.40;90.60;;;;;;4174937;28;20043;-61
2021/12/16 12:42:00;;;;;;;0.00;0.00;;;4.50;90.60;;;;;;4160486;28;20056;-62
2021/12/16 12:44:24;;;;;;;0.00;0.00;;;4.80;90.40;;;;;;4147752;28;20141;-62
2021/12/16 12:46:47;;;;;;;0.00;0.00;;;4.90;90.20;;;;;;4174807;28;20104;-62
2021/12/16 12:49:17;;;;;;;0.00;0.00;;;4.80;90.00;;;;;;4174830;28;20076;-63
2021/12/16 12:51:47;;;;;;;0.00;0.00;;;4.70;90.10;;;;;;4174332;28;20049;-62
2021/12/16 12:54:37;;;;;;;0.00;0.00;;;4.70;90.20;;;;;;4160739;28;20037;-61
2021/12/16 12:57:17;;;;;;;0.00;0.00;;;4.60;90.30;;;;;;4160953;28;20057;-62
2021/12/16 12:59:39;;;;;;;0.00;0.00;;;4.50;90.30;;;;;;4174874;28;20068;-62
2021/12/16 13:02:25;;;;;;;0.00;0.00;;;4.50;90.30;;;;;;4160591;28;20053;-62
2021/12/16 13:04:54;;;;;;;0.00;0.00;;;4.70;90.30;;;;;;4174567;28;20467;-62
2021/12/16 13:07:17;;;;;;;0.00;0.00;;;4.70;90.30;;;;;;4160807;28;20458;-62
2021/12/16 13:09:53;;;;;;;0.00;0.00;;;4.60;90.30;;;;;;4174573;28;20049;-62
2021/12/16 13:12:24;;;;;;;0.00;0.00;;;4.60;90.40;;;;;;4134579;28;20038;-61
2021/12/16 13:14:50;;;;;;;0.00;0.00;;;4.70;90.30;;;;;;4166295;28;20045;-62
2021/12/16 13:28:19;;;;;;;0.00;0.00;;;4.60;90.50;;;;;;4174193;28;20102;-61
2021/12/16 13:30:54;;;;;;;0.00;0.00;;;4.60;90.70;;;;;;4174516;28;20471;-61
2021/12/16 13:33:26;;;;;;;0.00;0.00;;;4.90;90.50;;;;;;4160391;28;20045;-62
2021/12/16 13:36:01;;;;;;;0.00;0.00;;;4.80;90.30;;;;;;4145109;28;20519;-63
2021/12/16 13:38:24;;;;;;;0.00;0.00;;;4.70;90.30;;;;;;4147222;28;20129;-62
2021/12/16 13:40:48;;;;;;;0.00;0.00;;;4.80;90.30;;;;;;4147003;28;20074;-62
2021/12/16 13:43:14;;;;;;;0.00;0.00;;;4.90;90.20;;;;;;4147445;28;20049;-61
2021/12/16 13:45:53;;;;;;;0.00;0.00;;;4.90;90.20;;;;;;4147274;28;20543;-62
2021/12/16 14:01:56;;;;;;;0.00;0.00;;;4.70;90.30;;;;;;4146543;28;20095;-63
2021/12/16 14:10:19;;;;;;;0.00;0.00;;;4.90;90.20;;;;;;4147625;28;20050;-62
2021/12/16 14:25:18;;;;;;;0.00;0.00;;;5.10;90.00;;;;;;4171708;28;20037;-62
2021/12/16 14:41:14;;;;;;;0.00;0.00;;;5.20;89.30;;;;;;4165439;28;20096;-63
2021/12/16 14:46:31;;;;;;;0.00;0.00;;;5.10;89.20;;;;;;4131488;28;20041;-61
2021/12/16 14:48:55;;;;;;;0.00;0.00;;;4.90;89.50;;;;;;4146370;28;20052;-62
2021/12/16 14:51:18;;;;;;;0.00;0.00;;;5.00;89.80;;;;;;4146135;28;20096;-62
2021/12/16 14:53:44;;;;;;;0.00;0.00;;;4.90;89.80;;;;;;4159987;28;20041;-64
2021/12/16 14:56:19;;;;;;;0.00;0.00;;;4.90;89.70;;;;;;4159849;28;20061;-62
2021/12/16 14:58:45;;;;;;;0.00;0.00;;;4.80;89.90;;;;;;4146228;28;20555;-63
2021/12/16 15:01:28;;;;;;;0.00;0.00;;;4.80;90.10;;;;;;4145981;28;20046;-62
2021/12/16 15:03:53;;;;;;;0.00;0.00;;;4.70;90.10;;;;;;4160794;28;20053;-62
2021/12/16 15:06:32;;;;;;;0.00;0.00;;;4.70;90.20;;;;;;4176119;28;20049;-61
2021/12/16 15:09:13;;;;;;;0.00;0.00;;;4.70;90.30;;;;;;4162337;28;20037;-62
2021/12/16 15:17:11;;;;;;;0.00;0.00;;;4.80;90.20;;;;;;4145864;28;20507;-62
2021/12/16 15:36:18;;;;;;;0.00;0.00;;;4.40;91.20;;;;;;4161528;28;20065;-63
2021/12/16 15:38:42;;;;;;;0.00;0.00;;;4.40;91.40;;;;;;4175821;28;20107;-61
2021/12/16 15:43:54;;;;;;;0.00;0.00;;;4.40;91.50;;;;;;4175396;28;20119;-65
2021/12/16 15:46:18;;;;;;;0.00;0.00;;;4.50;91.60;;;;;;4161859;28;20084;-63
2021/12/16 15:48:44;;;;;;;0.00;0.00;;;4.40;91.70;;;;;;4175622;28;20045;-63
2021/12/16 15:51:10;;;;;;;0.00;0.00;;;4.40;92.00;;;;;;4161463;28;20049;-63
2021/12/16 15:53:36;;;;;;;0.00;0.00;;;4.20;92.10;;;;;;4175508;28;20486;-63
2021/12/16 15:56:11;;;;;;;0.00;0.00;;;4.30;92.20;;;;;;4161462;28;20049;-63
2021/12/16 15:58:39;;;;;;;0.00;0.00;;;4.40;92.10;;;;;;4174482;28;20052;-62
2021/12/16 16:01:11;;;;;;;0.00;0.00;;;4.40;92.00;;;;;;4147492;28;20046;-62
2021/12/16 16:03:37;;;;;;;0.00;0.00;;;4.30;91.90;;;;;;4175193;28;20049;-62
2021/12/16 16:06:04;;;;;;;0.00;0.00;;;4.30;92.00;;;;;;4158542;28;20518;-62
2021/12/16 16:08:32;;;;;;;0.00;0.00;;;4.30;91.90;;;;;;4145159;28;20041;-66
2021/12/16 16:11:02;;;;;;;0.00;0.00;;;4.30;92.00;;;;;;4144824;28;20045;-63
2021/12/16 16:13:28;;;;;;;0.00;0.00;;;4.20;92.10;;;;;;4158686;28;20049;-63
2021/12/16 16:15:55;;;;;;;0.00;0.00;;;4.30;92.00;;;;;;4174072;28;20644;-63
2021/12/16 16:20:53;;;;;;;0.00;0.00;;;4.30;92.00;;;;;;4144820;28;20216;-63
2021/12/16 16:23:16;;;;;;;0.00;0.00;;;4.20;92.00;;;;;;4158931;28;20079;-63
2021/12/16 16:25:40;;;;;;;0.00;0.00;;;4.30;92.00;;;;;;4158599;28;20079;-62
2021/12/16 16:28:04;;;;;;;0.00;0.00;;;4.30;91.90;;;;;;4133907;28;20406;-62
2021/12/16 16:30:28;;;;;;;0.00;0.00;;;4.30;91.90;;;;;;4155753;28;20125;-62
2021/12/16 16:33:05;;;;;;;0.00;0.00;;;4.40;91.80;;;;;;4131624;28;20081;-62
2021/12/16 16:35:28;;;;;;;0.00;0.00;;;4.30;91.50;;;;;;4158482;28;20464;-62
2021/12/16 16:37:51;;;;;;;0.00;0.00;;;4.20;91.60;;;;;;4160803;28;20497;-62
2021/12/16 16:40:13;;;;;;;0.00;0.00;;;4.10;91.70;;;;;;4175000;28;20037;-59
2021/12/16 16:42:40;;;;;;;0.00;0.00;;;4.00;91.80;;;;;;4161094;28;20069;-59
2021/12/16 16:45:05;;;;;;;0.00;0.00;;;4.00;92.00;;;;;;4161101;28;20080;-59
2021/12/16 16:47:35;;;;;;;0.00;0.00;;;4.00;91.90;;;;;;4161010;28;20419;-58
2021/12/16 16:49:58;;;;;;;0.00;0.00;;;4.00;92.00;;;;;;4174251;28;20524;-58
2021/12/16 16:52:30;;;;;;;0.00;0.00;;;4.00;91.80;;;;;;4156064;28;20045;-60
2021/12/16 16:55:09;;;;;;;0.00;0.00;;;4.00;92.00;;;;;;4144619;28;20073;-59